• Join FlightAware (Why Join?)
  • Login
  • US Flag 
04:03AM EDT


 

Airport Tracker/Info


-or-


 

Live Flight TrackerFlight Track Log ✈ ASQ6103 ✈ 23-Jun-2013 ✈ KIAH - KMAF

Flight Track Log - Related Links

Times and Time Zones

All times are in EDT time to prevent confusion due to time zone crossing. See the ASQ6103 flight status page for this flight to view local times or setup timezone preferences in your user account.

Time Position Orientation Groundspeed Altitude Reporting Facility
EDT Latitude Longitude Course Direction KTS MPH feet Rate Location/Type
01:02PM 29.9622 -95.3483 276° West 148 170 600  Level Houston Center
01:03PM 29.9628 -95.4472 270° West 265 305 3,300 1,380 Climbing Houston Center
01:05PM 30.0211 -95.6901 277° West  Level FlightAware Approximate
01:05PM 29.9828 -95.5292 286° West 256 295 4,400  Level Houston Center
01:05PM 30.0019 -95.6017 287° West 264 304 6,900 2,220 Climbing Houston Center
01:06PM 30.0341 -95.8095 276° West  Level FlightAware Approximate
01:06PM 30.0092 -95.6389 283° West 266 306 7,600  Level Houston Center
01:07PM 30.0441 -95.9293 276° West  Level FlightAware Approximate
01:07PM 30.0233 -95.7267 281° West 277 319 9,700  Level Houston Center
01:08PM 30.0367 -95.8208 279° West 294 338 11,200 1,020 Climbing Houston Center
01:09PM 30.0514 -95.9294 279° West 339 390 11,900 1,140 Climbing Houston Center
01:10PM 30.0689 -96.0522 279° West 356 410 13,600 1,500 Climbing Houston Center
01:11PM 30.0864 -96.1639 280° West 356 410 15,000 1,200 Climbing Houston Center
01:12PM 30.1047 -96.2756 281° West 356 410 16,200 1,200 Climbing Houston Center
01:13PM 30.1247 -96.4136 280° West 365 420 17,600 1,200 Climbing Houston Center
01:14PM 30.1428 -96.5367 280° West 368 423 18,800 1,140 Climbing Houston Center
01:15PM 30.1619 -96.6572 280° West 375 432 20,000 1,140 Climbing Houston Center
01:16PM 30.1797 -96.7767 280° West 374 430 21,200 1,140 Climbing Houston Center
01:17PM 30.1989 -96.9008 280° West 384 442 22,400 1,140 Climbing Houston Center
01:18PM 30.2167 -97.0253 279° West 386 444 23,600 1,140 Climbing Houston Center
01:19PM 30.2347 -97.1506 280° West 388 447 24,800 1,080 Climbing Houston Center
01:20PM 30.2711 -97.2692 290° West 388 447 25,900 540 Climbing Houston Center
01:21PM 30.3161 -97.3914 293° West 405 466 26,000 120 Climbing Houston Center
01:22PM 30.3722 -97.5394 294° West 424 488 26,200 480 Climbing Houston Center
01:24PM 30.4222 -97.6700 294° West 434 499 27,100 840 Climbing Houston Center
01:25PM 30.4697 -97.7961 294° West 424 488 28,000 900 Climbing Houston Center
01:26PM 30.5164 -97.9217 293° West 418 481 29,000 900 Climbing Houston Center
01:27PM 30.5608 -98.0439 293° West 409 471 29,900 480 Climbing Houston Center
01:28PM 30.6067 -98.1681 293° West 413 475 30,000  Climbing Houston Center
01:29PM 30.6553 -98.2969 294° West 427 491 30,000  Level Houston Center
01:30PM 30.7036 -98.4292 293° West 438 504 30,000  Level Houston Center
01:31PM 30.7536 -98.5642 293° West 448 516 30,000  Level Houston Center
01:32PM 30.8103 -98.7206 293° West 447 514 30,000  Level Houston Center
01:33PM 30.8597 -98.8544 293° West 445 512 30,000  Level Houston Center
01:34PM 30.9075 -98.9883 293° West 445 512 30,000  Level Houston Center
01:35PM 30.9567 -99.1222 293° West 444 511 30,000  Level Houston Center
01:36PM 31.0008 -99.2456 293° West 444 511 30,000  Level Houston Center
01:37PM 31.0567 -99.4053 292° West 446 513 30,000  Level Houston Center
01:38PM 31.1047 -99.5361 293° West 441 507 30,000  Level Houston Center
01:39PM 31.1511 -99.6683 292° West 441 507 30,000  Level Houston Center
01:40PM 31.1986 -99.8022 293° West 453 521 30,000  Level Houston Center
01:41PM 31.2464 -99.9400 292° West 455 524 30,000  Level Houston Center
01:42PM 31.3025 -100.0978 293° West 446 513 30,000  Level Houston Center
01:43PM 31.3506 -100.2319 293° West 448 516 30,000  Level Houston Center
01:44PM 31.3961 -100.3669 292° West 445 512 30,000 -720 Level Houston Center
01:45PM 31.4417 -100.4992 292° West 438 504 28,600 -1,800 Descending Houston Center
01:46PM 31.4853 -100.6264 292° West 438 504 26,400 -2,280 Descending Fort Worth Center
01:47PM 31.5319 -100.7619 292° West 432 497 24,100 -2,340 Descending Fort Worth Center
01:48PM 31.5764 -100.8953 291° West 437 503 21,800 -2,280 Descending Fort Worth Center
01:49PM 31.6206 -101.0264 292° West 437 503 19,600 -2,100 Descending Fort Worth Center
01:50PM 31.6628 -101.1525 292° West 432 497 17,600 -2,040 Descending Fort Worth Center
01:51PM 31.7089 -101.2836 292° West 418 481 15,600 -1,980 Descending Fort Worth Center
01:52PM 31.7511 -101.4028 293° West 406 467 13,700 -1,800 Descending Fort Worth Center
01:53PM 31.7933 -101.5194 293° West 393 452 12,100 -1,440 Descending Fort Worth Center
01:54PM 31.8333 -101.6336 292° West 393 452 10,900 -1,080 Descending Fort Worth Center
01:55PM 31.8756 -101.7433 294° West 376 433 10,000 -720 Descending Fort Worth Center
01:56PM 31.9100 -101.8353 294° West 348 400 9,500 -900 Descending Fort Worth Center
01:57PM 31.9383 -101.9150 293° West 302 348 8,200 -1,380 Descending Fort Worth Center
01:58PM 31.9692 -101.9900 296° West 271 312 6,800 -1,440 Descending Fort Worth Center
01:59PM 32.0042 -102.0603 300° West 258 297 5,400 -1,140 Descending Fort Worth Center
02:00PM 32.0267 -102.1300 291° West 241 277 4,600 -840 Descending Fort Worth Center